createdAt,value
2023-02-01T00:00:15.879Z,2.30
2023-02-01T00:03:39.658Z,2.10
2023-02-01T00:07:04.851Z,1.90
2023-02-01T00:10:28.268Z,2.30
2023-02-01T00:13:52.155Z,1.60
2023-02-01T00:17:15.564Z,1.90
2023-02-01T00:20:39.344Z,1.70
2023-02-01T00:24:05.376Z,1.70
2023-02-01T00:27:28.846Z,1.80
2023-02-01T00:30:59.242Z,1.70
2023-02-01T00:34:23.290Z,1.60
2023-02-01T00:37:47.603Z,2.20
2023-02-01T00:41:15.441Z,1.60
2023-02-01T00:44:39.241Z,1.60
2023-02-01T00:48:02.741Z,1.70
2023-02-01T00:51:29.292Z,1.87
2023-02-01T00:54:52.763Z,1.73
2023-02-01T00:58:18.309Z,1.57
2023-02-01T01:01:42.291Z,1.30
2023-02-01T01:05:07.094Z,1.87
2023-02-01T01:08:31.018Z,1.27
2023-02-01T01:11:54.832Z,1.50
2023-02-01T01:15:19.743Z,1.50
2023-02-01T01:18:43.850Z,1.40
2023-02-01T01:22:07.743Z,1.40
2023-02-01T01:25:31.552Z,1.40
2023-02-01T01:28:56.712Z,1.43
2023-02-01T01:32:21.561Z,1.33
2023-02-01T01:35:45.488Z,1.40
2023-02-01T01:39:09.639Z,1.30
2023-02-01T01:42:38.640Z,1.60
2023-02-01T01:46:02.447Z,0.93
2023-02-01T01:49:28.555Z,1.20
2023-02-01T01:52:56.753Z,1.33
2023-02-01T01:56:20.296Z,1.13
2023-02-01T01:59:52.048Z,1.00
2023-02-01T02:03:20.397Z,1.43
2023-02-01T02:06:52.331Z,1.10
2023-02-01T02:10:17.541Z,1.30
2023-02-01T02:13:44.339Z,1.20
2023-02-01T02:17:32.440Z,1.40
2023-02-01T02:21:15.067Z,1.50
2023-02-01T02:25:07.070Z,1.30
2023-02-01T02:29:06.782Z,1.20
2023-02-01T02:33:16.507Z,1.20
2023-02-01T02:36:57.692Z,1.60
2023-02-01T02:40:34.687Z,1.30
2023-02-01T02:44:22.930Z,1.30
2023-02-01T02:47:55.383Z,1.27
2023-02-01T02:51:49.313Z,1.10
2023-02-01T02:55:14.168Z,1.50
2023-02-01T02:58:55.367Z,1.50
2023-02-01T03:02:38.581Z,1.20
2023-02-01T03:06:02.402Z,1.50
2023-02-01T03:09:33.172Z,1.40
2023-02-01T03:13:04.075Z,1.33
2023-02-01T03:16:35.568Z,1.40
2023-02-01T03:20:03.216Z,1.63
2023-02-01T03:23:32.893Z,1.50
2023-02-01T03:27:04.243Z,1.20
2023-02-01T03:30:31.572Z,1.13
2023-02-01T03:33:55.476Z,1.33
2023-02-01T03:37:25.252Z,1.20
2023-02-01T03:40:55.663Z,1.80
2023-02-01T03:44:25.977Z,1.43
2023-02-01T03:47:54.510Z,1.50
2023-02-01T03:51:21.324Z,1.47
2023-02-01T03:54:46.939Z,1.30
2023-02-01T03:58:14.846Z,1.43
2023-02-01T04:01:40.081Z,1.57
2023-02-01T04:05:04.991Z,1.30
2023-02-01T04:08:28.969Z,1.17
2023-02-01T04:11:52.480Z,1.30
2023-02-01T04:15:16.742Z,1.30
2023-02-01T04:18:41.682Z,1.20
2023-02-01T04:22:05.499Z,1.27
2023-02-01T04:25:28.948Z,1.17
2023-02-01T04:28:53.667Z,1.33
2023-02-01T04:32:17.512Z,1.53
2023-02-01T04:35:42.907Z,1.60
2023-02-01T04:39:06.737Z,1.60
2023-02-01T04:42:30.640Z,1.73
2023-02-01T04:45:54.897Z,1.60
2023-02-01T04:49:19.082Z,1.37
2023-02-01T04:52:46.267Z,1.40
2023-02-01T04:56:10.325Z,1.43
2023-02-01T04:59:34.585Z,1.03
2023-02-01T05:02:58.509Z,1.30
2023-02-01T05:06:22.592Z,1.47
2023-02-01T05:09:47.752Z,1.40
2023-02-01T05:13:29.680Z,1.30
2023-02-01T05:16:53.505Z,1.37
2023-02-01T05:20:17.608Z,1.23
2023-02-01T05:23:55.508Z,1.10
2023-02-01T05:27:20.421Z,1.20
2023-02-01T05:30:44.355Z,1.10
2023-02-01T05:34:08.321Z,1.10
2023-02-01T05:37:32.075Z,1.13
2023-02-01T05:40:55.954Z,1.20
2023-02-01T05:44:20.715Z,1.00
2023-02-01T05:47:44.823Z,1.20
2023-02-01T05:51:08.971Z,1.27
2023-02-01T05:54:32.846Z,1.30
2023-02-01T05:57:56.638Z,1.13
2023-02-01T06:01:21.807Z,1.00
2023-02-01T06:04:45.654Z,1.37
2023-02-01T06:08:09.916Z,1.33
2023-02-01T06:11:33.542Z,1.37
2023-02-01T06:14:57.372Z,1.17
2023-02-01T06:18:22.666Z,1.20
2023-02-01T06:21:46.613Z,1.03
2023-02-01T06:25:12.364Z,1.10
2023-02-01T06:28:36.675Z,1.13
2023-02-01T06:32:00.713Z,1.53
2023-02-01T06:35:27.142Z,1.63
2023-02-01T06:38:51.173Z,1.20
2023-02-01T06:42:14.783Z,1.20
2023-02-01T06:45:38.345Z,1.40
2023-02-01T06:49:01.801Z,1.53
2023-02-01T06:52:26.820Z,1.60
2023-02-01T06:55:57.941Z,1.33
2023-02-01T06:59:21.787Z,1.77
2023-02-01T07:02:46.060Z,1.47
2023-02-01T07:06:11.029Z,1.60
2023-02-01T07:09:36.215Z,1.60
2023-02-01T07:13:00.634Z,1.70
2023-02-01T07:16:24.555Z,1.40
2023-02-01T07:19:48.551Z,1.97
2023-02-01T07:23:12.956Z,1.50
2023-02-01T07:26:37.682Z,1.47
2023-02-01T07:30:03.220Z,1.50
2023-02-01T07:33:28.207Z,1.37
2023-02-01T07:36:51.723Z,1.50
2023-02-01T07:40:15.667Z,1.30
2023-02-01T07:43:41.255Z,1.50
2023-02-01T07:47:05.117Z,1.50
2023-02-01T07:50:28.987Z,1.67
2023-02-01T07:53:54.262Z,1.40
2023-02-01T07:57:19.664Z,1.53
2023-02-01T08:01:02.958Z,1.60
2023-02-01T08:04:26.728Z,2.27
2023-02-01T08:07:51.986Z,1.73
2023-02-01T08:11:16.667Z,1.60
2023-02-01T08:14:41.852Z,1.63
2023-02-01T08:18:07.150Z,1.30
2023-02-01T08:21:37.510Z,1.67
2023-02-01T08:25:02.269Z,1.50
2023-02-01T08:28:26.060Z,1.27
2023-02-01T08:31:49.965Z,1.90
2023-02-01T08:35:15.791Z,1.43
2023-02-01T08:38:41.330Z,1.27
2023-02-01T08:42:22.943Z,1.57
2023-02-01T08:45:47.200Z,1.70
2023-02-01T08:49:11.091Z,1.70
2023-02-01T08:52:38.176Z,1.70
2023-02-01T08:56:02.552Z,1.60
2023-02-01T08:59:27.906Z,1.67
2023-02-01T09:02:53.414Z,1.50
2023-02-01T09:06:18.622Z,2.00
2023-02-01T09:09:44.149Z,1.50
2023-02-01T09:13:08.651Z,1.60
2023-02-01T09:16:32.906Z,1.80
2023-02-01T09:19:56.705Z,1.77
2023-02-01T09:23:21.867Z,1.90
2023-02-01T09:26:47.375Z,1.60
2023-02-01T09:30:13.014Z,1.73
2023-02-01T09:33:37.296Z,2.00
2023-02-01T09:37:01.131Z,2.23
2023-02-01T09:40:25.598Z,2.43
2023-02-01T09:44:07.825Z,3.03
2023-02-01T09:47:32.690Z,2.40
2023-02-01T09:51:01.036Z,2.40
2023-02-01T09:54:27.865Z,2.50
2023-02-01T09:57:59.725Z,2.90
2023-02-01T10:01:27.938Z,2.20
2023-02-01T10:04:52.232Z,2.00
2023-02-01T10:08:27.966Z,2.50
2023-02-01T10:12:11.926Z,2.70
2023-02-01T10:16:01.238Z,2.10
2023-02-01T10:19:41.334Z,2.50
2023-02-01T10:23:34.004Z,2.00
2023-02-01T10:27:04.401Z,1.87
2023-02-01T10:30:34.743Z,2.17
2023-02-01T10:34:01.046Z,1.90
2023-02-01T10:37:32.152Z,1.97
2023-02-01T10:41:03.671Z,2.87
2023-02-01T10:44:30.699Z,2.43
2023-02-01T10:47:57.978Z,1.90
2023-02-01T10:51:28.631Z,2.10
2023-02-01T10:54:54.843Z,2.10
2023-02-01T10:58:21.371Z,2.40
2023-02-01T11:01:48.098Z,2.40
2023-02-01T11:05:13.332Z,2.30
2023-02-01T11:08:47.131Z,2.40
2023-02-01T11:12:31.859Z,2.40
2023-02-01T11:15:58.357Z,2.30
2023-02-01T11:19:22.847Z,2.03
2023-02-01T11:22:55.039Z,2.23
2023-02-01T11:26:25.625Z,1.93
2023-02-01T11:29:54.572Z,1.80
2023-02-01T11:33:24.881Z,2.30
2023-02-01T11:36:50.945Z,2.43
2023-02-01T11:40:28.534Z,2.30
2023-02-01T11:43:59.416Z,2.53
2023-02-01T11:47:28.023Z,2.90
2023-02-01T11:51:06.956Z,2.90
2023-02-01T11:54:50.448Z,2.10
2023-02-01T11:58:24.760Z,1.80
2023-02-01T12:02:08.682Z,2.20
2023-02-01T12:05:52.775Z,1.87
2023-02-01T12:09:36.344Z,2.10
2023-02-01T12:13:15.722Z,2.20
2023-02-01T12:16:50.556Z,2.00
2023-02-01T12:20:43.669Z,2.43
2023-02-01T12:24:40.910Z,1.80
2023-02-01T12:28:30.086Z,1.77
2023-02-01T12:32:13.154Z,2.00
2023-02-01T12:36:01.129Z,1.63
2023-02-01T12:39:34.057Z,2.00
2023-02-01T12:43:04.054Z,2.00
2023-02-01T12:46:34.464Z,2.40
2023-02-01T12:50:05.183Z,1.90
2023-02-01T12:53:35.600Z,1.70
2023-02-01T12:57:07.012Z,1.73
2023-02-01T13:00:38.107Z,2.23
2023-02-01T13:04:12.519Z,1.40
2023-02-01T13:07:44.365Z,1.63
2023-02-01T13:11:16.140Z,2.50
2023-02-01T13:14:48.535Z,1.60
2023-02-01T13:18:19.549Z,1.53
2023-02-01T13:21:49.760Z,1.60
2023-02-01T13:25:17.698Z,1.87
2023-02-01T13:28:47.872Z,2.30
2023-02-01T13:32:53.115Z,2.23
2023-02-01T13:37:01.580Z,1.43
2023-02-01T13:40:38.171Z,1.90
2023-02-01T13:44:05.773Z,1.70
2023-02-01T13:47:35.861Z,1.70
2023-02-01T13:51:01.636Z,1.77
2023-02-01T13:54:32.149Z,1.73
2023-02-01T13:58:20.054Z,1.90
2023-02-01T14:01:43.676Z,1.47
2023-02-01T14:05:11.676Z,1.73
2023-02-01T14:08:42.611Z,2.10
2023-02-01T14:12:45.759Z,1.70
2023-02-01T14:16:18.468Z,1.80
2023-02-01T14:19:42.458Z,2.03
2023-02-01T14:23:16.472Z,1.40
2023-02-01T14:26:48.629Z,1.40
2023-02-01T14:30:18.429Z,2.43
2023-02-01T14:33:44.951Z,1.83
2023-02-01T14:37:10.667Z,1.30
2023-02-01T14:40:36.789Z,1.83
2023-02-01T14:44:28.451Z,1.33
2023-02-01T14:47:53.166Z,1.80
2023-02-01T14:51:21.274Z,2.07
2023-02-01T14:54:53.735Z,2.10
2023-02-01T14:58:27.247Z,2.93
2023-02-01T15:01:58.285Z,1.90
2023-02-01T15:05:31.902Z,2.20
2023-02-01T15:08:59.302Z,2.17
2023-02-01T15:12:28.681Z,2.30
2023-02-01T15:16:15.456Z,2.10
2023-02-01T15:19:39.569Z,2.10
2023-02-01T15:23:06.228Z,2.70
2023-02-01T15:26:32.052Z,2.40
2023-02-01T15:29:56.546Z,1.77
2023-02-01T15:33:22.119Z,2.20
2023-02-01T15:37:01.465Z,1.93
2023-02-01T15:40:27.500Z,1.80
2023-02-01T15:44:06.532Z,2.10
2023-02-01T15:47:32.972Z,1.80
2023-02-01T15:50:58.481Z,1.70
2023-02-01T15:54:26.820Z,1.80
2023-02-01T15:57:51.634Z,2.43
2023-02-01T16:01:16.397Z,1.50
2023-02-01T16:04:51.786Z,1.60
2023-02-01T16:08:22.844Z,1.60
2023-02-01T16:11:58.915Z,1.40
2023-02-01T16:15:23.278Z,1.80
2023-02-01T16:18:47.259Z,1.70
2023-02-01T16:22:11.236Z,1.97
2023-02-01T16:25:36.858Z,1.90
2023-02-01T16:29:03.013Z,2.37
2023-02-01T16:32:27.675Z,1.73
2023-02-01T16:35:52.996Z,2.47
2023-02-01T16:39:16.959Z,1.87
2023-02-01T16:42:42.589Z,1.80
2023-02-01T16:46:08.529Z,2.13
2023-02-01T16:49:32.432Z,1.80
2023-02-01T16:52:56.412Z,2.13
2023-02-01T16:56:23.327Z,2.33
2023-02-01T16:59:48.576Z,1.80
2023-02-01T17:03:17.441Z,2.20
2023-02-01T17:06:42.600Z,1.90
2023-02-01T17:10:07.441Z,1.77
2023-02-01T17:13:31.592Z,1.63
2023-02-01T17:16:58.188Z,1.70
2023-02-01T17:20:25.125Z,1.77
2023-02-01T17:23:49.059Z,2.20
2023-02-01T17:27:12.546Z,2.40
2023-02-01T17:30:36.193Z,1.70
2023-02-01T17:34:01.752Z,1.87
2023-02-01T17:37:28.962Z,1.50
2023-02-01T17:40:53.425Z,1.83
2023-02-01T17:44:17.705Z,1.87
2023-02-01T17:47:41.548Z,1.53
2023-02-01T17:51:13.537Z,1.47
2023-02-01T17:54:38.548Z,1.67
2023-02-01T17:58:02.444Z,2.17
2023-02-01T18:01:27.372Z,1.97
2023-02-01T18:04:52.367Z,2.07
2023-02-01T18:08:17.919Z,1.90
2023-02-01T18:11:42.528Z,1.70
2023-02-01T18:15:19.083Z,1.87
2023-02-01T18:18:42.814Z,1.50
2023-02-01T18:22:06.847Z,2.00
2023-02-01T18:25:37.093Z,2.10
2023-02-01T18:29:01.383Z,1.70
2023-02-01T18:32:25.291Z,2.30
2023-02-01T18:35:49.591Z,2.40
2023-02-01T18:39:13.348Z,2.40
2023-02-01T18:42:38.838Z,2.37
2023-02-01T18:46:02.752Z,2.00
2023-02-01T18:49:26.232Z,2.30
2023-02-01T18:52:49.683Z,2.40
2023-02-01T18:56:14.424Z,1.60
2023-02-01T18:59:39.719Z,2.20
2023-02-01T19:03:03.690Z,1.60
2023-02-01T19:06:27.598Z,2.20
2023-02-01T19:09:51.345Z,2.00
2023-02-01T19:13:15.431Z,1.73
2023-02-01T19:16:40.602Z,2.43
2023-02-01T19:20:04.825Z,2.67
2023-02-01T19:23:28.815Z,1.90
2023-02-01T19:26:52.747Z,1.80
2023-02-01T19:30:17.794Z,1.80
2023-02-01T19:33:43.217Z,2.10
2023-02-01T19:37:07.836Z,1.70
2023-02-01T19:40:31.697Z,1.57
2023-02-01T19:43:55.719Z,2.00
2023-02-01T19:47:19.345Z,1.63
2023-02-01T19:50:45.567Z,1.90
2023-02-01T19:54:10.043Z,2.10
2023-02-01T19:57:34.111Z,1.50
2023-02-01T20:00:59.696Z,2.00
2023-02-01T20:04:23.759Z,2.50
2023-02-01T20:07:48.669Z,2.43
2023-02-01T20:11:12.522Z,2.43
2023-02-01T20:14:36.545Z,2.30
2023-02-01T20:18:00.341Z,1.87
2023-02-01T20:21:24.266Z,2.07
2023-02-01T20:24:49.035Z,1.70
2023-02-01T20:28:14.211Z,2.40
2023-02-01T20:31:38.487Z,2.60
2023-02-01T20:35:02.288Z,1.80
2023-02-01T20:38:26.485Z,1.80
2023-02-01T20:41:51.632Z,1.87
2023-02-01T20:45:15.560Z,1.90
2023-02-01T20:48:39.246Z,1.70
2023-02-01T20:52:03.095Z,1.80
2023-02-01T20:55:27.311Z,1.97
2023-02-01T20:58:52.603Z,2.70
2023-02-01T21:02:16.461Z,1.90
2023-02-01T21:05:43.962Z,2.00
2023-02-01T21:09:07.591Z,1.80
2023-02-01T21:12:32.026Z,2.00
2023-02-01T21:15:57.174Z,2.10
2023-02-01T21:19:22.377Z,2.13
2023-02-01T21:22:46.311Z,2.00
2023-02-01T21:26:09.785Z,2.70
2023-02-01T21:29:33.405Z,2.30
2023-02-01T21:32:59.478Z,1.73
2023-02-01T21:36:23.479Z,1.70
2023-02-01T21:39:47.302Z,1.53
2023-02-01T21:43:11.139Z,2.20
2023-02-01T21:46:34.958Z,1.77
2023-02-01T21:50:00.229Z,2.27
2023-02-01T21:53:24.410Z,2.00
2023-02-01T21:56:47.863Z,2.00
2023-02-01T22:00:13.502Z,2.10
2023-02-01T22:03:37.937Z,1.67
2023-02-01T22:07:02.750Z,2.37
2023-02-01T22:10:26.587Z,1.97
2023-02-01T22:13:50.176Z,2.67
2023-02-01T22:17:14.364Z,1.90
2023-02-01T22:20:38.174Z,1.73
2023-02-01T22:24:03.324Z,1.80
2023-02-01T22:28:20.410Z,3.00
2023-02-01T22:31:11.237Z,1.93
2023-02-01T22:34:35.054Z,2.00
2023-02-01T22:37:58.856Z,1.57
2023-02-01T22:41:23.603Z,1.83
2023-02-01T22:44:47.465Z,2.00
2023-02-01T22:48:11.282Z,1.90
2023-02-01T22:51:35.280Z,1.87
2023-02-01T22:54:59.077Z,1.50
2023-02-01T22:58:24.795Z,1.60
2023-02-01T23:01:48.307Z,1.60
2023-02-01T23:05:12.009Z,1.80
2023-02-01T23:08:39.326Z,2.20
2023-02-01T23:12:03.183Z,1.27
2023-02-01T23:15:28.269Z,1.60
2023-02-01T23:18:51.937Z,1.57
2023-02-01T23:22:15.717Z,1.60
2023-02-01T23:25:39.520Z,1.77
2023-02-01T23:29:04.194Z,1.63
2023-02-01T23:32:30.035Z,1.80
2023-02-01T23:35:58.716Z,2.10
2023-02-01T23:39:22.635Z,1.70
2023-02-01T23:43:06.413Z,1.50
2023-02-01T23:46:33.097Z,1.77
2023-02-01T23:49:58.275Z,1.67
2023-02-01T23:53:22.112Z,2.03
2023-02-01T23:56:47.220Z,1.53
